Terminal Aerodrome Forecast
Issued by NWS Charleston, WV

Current Version | Previous Version | Text Only | Print | Product List | Glossary Off
Versions: 1 2 3 4 5 6 7 8 9 10 11 12 13 14 15 16 17 18 19 20 21 22 23 24 25

311
FTUS41 KRLX 172332
TAFCRW
TAF
KCRW 172332Z 1800/1824 19004KT P6SM SCT250
     FM180500 00000KT P6SM BKN050
     FM181000 VRB03KT P6SM VCTS BKN020CB
     FM181700 25005KT P6SM SCT030
     FM181900 25006KT P6SM SCT035=

USA.gov is the U.S. government's official web portal to all federal, state and local government web resources and services.